Time;durP1;ratioP1;P1;durP2;ratioP2;P2;SDS_P1;SDS_P2;PMS_P1;PMS_P2;Temp;Humidity;BMP_temperature;BMP_pressure;BME280_temperature;BME280_humidity;BME280_pressure;Samples;Min_cycle;Max_cycle;Signal;HPM_P1;HPM_P2
2023/04/21 00:01:46;;;;;;;18.48;13.10;;;;;;;8.51;100.00;101657.91;5028219;28;20426;-57
2023/04/21 00:04:12;;;;;;;20.17;14.10;;;;;;;8.50;100.00;101663.19;5026816;28;20059;-62
2023/04/21 00:06:40;;;;;;;20.40;13.00;;;;;;;8.52;100.00;101659.63;5026695;28;20061;-58
2023/04/21 00:09:06;;;;;;;23.33;13.73;;;;;;;8.47;100.00;101671.97;5028561;28;20064;-59
2023/04/21 00:11:31;;;;;;;17.67;12.75;;;;;;;8.56;100.00;101676.28;5029144;28;20030;-59
2023/04/21 00:13:57;;;;;;;20.65;13.52;;;;;;;8.52;100.00;101679.81;5027731;28;20037;-59
2023/04/21 00:16:22;;;;;;;21.13;13.75;;;;;;;8.41;100.00;101682.53;5027206;28;20033;-58
2023/04/21 00:18:47;;;;;;;21.77;14.10;;;;;;;8.34;100.00;101682.59;5028069;28;20033;-58
2023/04/21 00:21:13;;;;;;;20.83;14.40;;;;;;;8.22;100.00;101688.00;5027629;28;20021;-59
2023/04/21 00:23:38;;;;;;;19.98;14.57;;;;;;;8.26;100.00;101691.44;5028298;28;20029;-62
2023/04/21 00:26:03;;;;;;;20.35;13.73;;;;;;;8.30;100.00;101683.53;5044777;28;20115;-57
2023/04/21 00:28:29;;;;;;;22.63;14.93;;;;;;;8.19;100.00;101681.00;5048345;28;20100;-59
2023/04/21 00:30:54;;;;;;;26.35;15.57;;;;;;;8.32;100.00;101678.25;5046276;28;20089;-60
2023/04/21 00:33:20;;;;;;;24.13;14.75;;;;;;;8.18;100.00;101670.53;5048031;28;20120;-58
2023/04/21 00:35:45;;;;;;;22.63;14.98;;;;;;;8.20;100.00;101664.41;5048614;28;20035;-51
2023/04/21 00:38:11;;;;;;;20.63;14.10;;;;;;;8.40;100.00;101665.06;5040679;28;20042;-62
2023/04/21 00:40:36;;;;;;;25.77;15.52;;;;;;;8.49;100.00;101654.41;5007799;28;20022;-57
2023/04/21 00:43:05;;;;;;;20.50;14.30;;;;;;;8.38;100.00;101656.31;5007595;28;20033;-61
2023/04/21 00:45:30;;;;;;;23.55;15.40;;;;;;;8.30;100.00;101638.88;5020304;28;20094;-62
2023/04/21 00:47:55;;;;;;;22.08;14.15;;;;;;;8.36;100.00;101626.59;5027338;28;20033;-56
2023/04/21 00:50:21;;;;;;;24.08;15.75;;;;;;;8.43;100.00;101628.25;5026994;28;20534;-58
2023/04/21 00:52:47;;;;;;;21.90;15.23;;;;;;;8.52;100.00;101629.91;5027263;28;20029;-58
2023/04/21 00:55:13;;;;;;;24.58;15.15;;;;;;;8.52;100.00;101630.75;5026713;28;20061;-60
2023/04/21 00:57:38;;;;;;;24.85;15.88;;;;;;;8.53;100.00;101624.63;5025576;28;20018;-59
2023/04/21 01:00:05;;;;;;;22.77;14.77;;;;;;;8.47;100.00;101629.94;5043745;28;20040;-58
2023/04/21 01:02:31;;;;;;;22.15;15.55;;;;;;;8.53;100.00;101618.50;5046195;28;20044;-63
2023/04/21 01:04:56;;;;;;;22.40;15.48;;;;;;;8.57;100.00;101628.97;5046987;28;20547;-59
2023/04/21 01:07:24;;;;;;;24.48;15.77;;;;;;;8.56;100.00;101634.25;5046651;28;20021;-58
2023/04/21 01:09:49;;;;;;;23.20;16.13;;;;;;;8.55;100.00;101622.00;5047999;28;20025;-59
2023/04/21 01:12:15;;;;;;;27.40;16.58;;;;;;;8.44;100.00;101619.47;5042105;28;20048;-57
2023/04/21 01:14:40;;;;;;;27.95;17.52;;;;;;;8.40;100.00;101615.16;5023675;28;20037;-58
2023/04/21 01:17:06;;;;;;;26.40;16.55;;;;;;;8.46;100.00;101617.72;5016600;28;20520;-56
2023/04/21 01:19:34;;;;;;;26.90;16.90;;;;;;;8.49;100.00;101619.41;5024613;28;20490;-58
2023/04/21 01:22:01;;;;;;;24.30;16.17;;;;;;;8.47;100.00;101620.31;5027471;28;20029;-58
2023/04/21 01:24:43;;;;;;;28.38;16.90;;;;;;;8.55;100.00;101619.38;5026907;28;20064;-61
2023/04/21 01:27:10;;;;;;;27.35;16.75;;;;;;;8.46;100.00;101617.72;5027293;28;20057;-60
2023/04/21 01:29:36;;;;;;;26.40;17.50;;;;;;;8.46;100.00;101622.97;5025731;28;20022;-54
2023/04/21 01:32:28;;;;;;;28.95;17.00;;;;;;;8.49;100.00;101624.69;5027092;28;20033;-60
2023/04/21 01:34:55;;;;;;;27.55;16.85;;;;;;;8.47;100.00;101615.06;5022492;28;20121;-54
2023/04/21 01:37:24;;;;;;;24.70;16.25;;;;;;;8.57;100.00;101615.84;5026765;28;20033;-60
2023/04/21 01:39:53;;;;;;;;;;;;;;;8.61;100.00;101615.81;5027501;28;20033;-57
2023/04/21 01:42:20;;;;;;;24.95;15.82;;;;;;;8.60;100.00;101609.66;5027594;28;19979;-58
2023/04/21 01:44:45;;;;;;;31.55;18.23;;;;;;;8.46;100.00;101609.84;5027403;28;20032;-59
2023/04/21 01:47:11;;;;;;;27.10;16.45;;;;;;;8.46;100.00;101610.69;5025168;28;20022;-59
2023/04/21 01:49:37;;;;;;;35.30;17.60;;;;;;;8.44;100.00;101608.97;5007126;28;20026;-60
2023/04/21 01:52:02;;;;;;;33.45;19.20;;;;;;;8.33;100.00;101607.34;5005906;28;20045;-58
2023/04/21 01:54:28;;;;;;;31.25;18.92;;;;;;;8.39;100.00;101595.00;5006830;28;20033;-62
2023/04/21 01:56:53;;;;;;;26.77;17.58;;;;;;;8.46;100.00;101591.44;5007158;28;20030;-57
2023/04/21 01:59:19;;;;;;;28.70;18.27;;;;;;;8.47;100.00;101590.56;5006665;28;20058;-58
2023/04/21 02:01:44;;;;;;;27.92;17.80;;;;;;;8.57;100.00;101589.56;5006967;28;20036;-56
2023/04/21 02:04:10;;;;;;;30.25;18.05;;;;;;;8.56;100.00;101577.34;5007426;28;20053;-59
2023/04/21 02:06:35;;;;;;;31.58;18.50;;;;;;;8.37;100.00;101575.81;5005745;28;20523;-58
2023/04/21 02:09:00;;;;;;;27.90;18.10;;;;;;;8.40;100.00;101578.38;5007144;28;20030;-57
2023/04/21 02:11:25;;;;;;;32.00;19.48;;;;;;;8.55;100.00;101579.97;5007025;28;20071;-63
2023/04/21 02:13:54;;;;;;;28.00;18.58;;;;;;;8.53;100.00;101566.84;5006034;28;20033;-57
2023/04/21 02:16:24;;;;;;;33.80;18.42;;;;;;;8.59;100.00;101582.56;5006946;28;20765;-57
2023/04/21 02:18:50;;;;;;;30.23;17.98;;;;;;;8.58;100.00;101572.91;5014134;28;20025;-57
2023/04/21 02:21:16;;;;;;;30.95;17.88;;;;;;;8.58;100.00;101566.81;5025948;28;20486;-61
2023/04/21 02:23:41;;;;;;;32.60;19.05;;;;;;;8.71;100.00;101576.25;5026353;28;20029;-59
2023/04/21 02:26:06;;;;;;;32.45;19.15;;;;;;;8.63;100.00;101572.84;5025908;28;20084;-55
2023/04/21 02:28:32;;;;;;;32.85;19.67;;;;;;;8.66;100.00;101569.31;5027148;28;20096;-58
2023/04/21 02:30:57;;;;;;;33.53;20.58;;;;;;;8.68;100.00;101570.16;5026273;28;20024;-57
2023/04/21 02:33:22;;;;;;;31.67;19.40;;;;;;;8.73;100.00;101570.94;5006706;28;20030;-55
2023/04/21 02:35:48;;;;;;;34.40;20.70;;;;;;;8.64;100.00;101568.47;5005935;28;20041;-55
2023/04/21 02:38:13;;;;;;;34.50;20.80;;;;;;;8.59;100.00;101566.78;5006579;28;20018;-54
2023/04/21 02:40:39;;;;;;;31.15;20.27;;;;;;;8.60;100.00;101557.13;5006592;28;20022;-59
2023/04/21 02:43:05;;;;;;;34.13;20.95;;;;;;;8.66;100.00;101548.28;5018083;28;20534;-55
2023/04/21 02:45:30;;;;;;;34.50;21.25;;;;;;;8.62;100.00;101543.97;5026777;28;20136;-61
2023/04/21 02:47:55;;;;;;;32.63;21.55;;;;;;;8.66;100.00;101541.28;5026473;28;20469;-59
2023/04/21 02:50:21;;;;;;;35.50;20.90;;;;;;;8.58;100.00;101536.13;5026389;28;20476;-60
2023/04/21 02:52:46;;;;;;;35.38;20.20;;;;;;;8.68;100.00;101541.25;5025332;28;20057;-55
2023/04/21 02:55:11;;;;;;;40.50;22.77;;;;;;;8.63;100.00;101549.22;5025231;28;20124;-57
2023/04/21 02:57:37;;;;;;;36.17;21.33;;;;;;;8.61;100.00;101542.25;5026423;28;20064;-61
2023/04/21 03:00:03;;;;;;;32.42;21.67;;;;;;;8.65;100.00;101538.69;5019986;28;20726;-58
2023/04/21 03:02:29;;;;;;;35.78;21.30;;;;;;;8.63;100.00;101540.44;5006723;28;20034;-54
2023/04/21 03:04:55;;;;;;;34.65;21.75;;;;;;;8.57;100.00;101536.16;5025255;28;20053;-59
2023/04/21 03:07:20;;;;;;;35.50;22.85;;;;;;;8.58;100.00;101537.91;5027541;28;20411;-57
2023/04/21 03:09:45;;;;;;;40.08;22.27;;;;;;;8.56;100.00;101545.81;5029697;28;20021;-60
2023/04/21 03:12:11;;;;;;;40.45;22.05;;;;;;;8.54;100.00;101547.56;5029737;28;20021;-59
2023/04/21 03:14:36;;;;;;;34.15;21.52;;;;;;;8.58;100.00;101537.91;5029632;28;20041;-57
2023/04/21 03:17:01;;;;;;;37.38;22.15;;;;;;;8.68;100.00;101543.88;5029581;28;20474;-62
2023/04/21 03:19:28;;;;;;;36.63;22.00;;;;;;;8.70;100.00;101544.75;5030085;28;20032;-58
2023/04/21 03:21:53;;;;;;;35.75;22.38;;;;;;;8.62;100.00;101543.97;5029151;28;20017;-61
2023/04/21 03:24:20;;;;;;;44.92;22.38;;;;;;;8.59;100.00;101540.53;5028383;28;20032;-56
2023/04/21 03:26:45;;;;;;;35.97;22.20;;;;;;;8.51;100.00;101531.81;5029945;28;20021;-58
2023/04/21 03:29:11;;;;;;;38.55;23.83;;;;;;;8.40;100.00;101533.75;5041533;28;20041;-53
2023/04/21 03:31:36;;;;;;;40.58;22.33;;;;;;;8.39;100.00;101532.88;5030776;28;20098;-55
2023/04/21 03:34:01;;;;;;;37.92;23.30;;;;;;;8.39;100.00;101524.97;5028904;28;20104;-56
2023/04/21 03:36:27;;;;;;;40.92;24.40;;;;;;;8.29;100.00;101511.13;5028908;28;20026;-60
2023/04/21 03:38:52;;;;;;;45.13;23.83;;;;;;;8.33;100.00;101517.19;5029274;28;20476;-58
2023/04/21 03:41:18;;;;;;;39.05;23.27;;;;;;;8.35;100.00;101510.16;5018036;28;20041;-56
2023/04/21 03:43:43;;;;;;;48.53;26.55;;;;;;;8.29;100.00;101516.38;5027949;28;20357;-59
2023/04/21 03:46:16;;;;;;;49.42;25.40;;;;;;;8.13;100.00;101505.19;5028778;28;20526;-55
2023/04/21 03:48:42;;;;;;;47.85;27.55;;;;;;;8.11;100.00;101496.47;5029305;28;20422;-56
2023/04/21 03:51:07;;;;;;;49.55;26.50;;;;;;;8.29;100.00;101494.50;5028648;28;20026;-57
2023/04/21 03:53:32;;;;;;;43.28;25.95;;;;;;;8.18;100.00;101498.13;5028191;28;20071;-59
2023/04/21 03:55:57;;;;;;;45.47;26.23;;;;;;;8.30;100.00;101501.47;5028403;28;20047;-57
2023/04/21 03:58:23;;;;;;;42.40;26.10;;;;;;;8.29;100.00;101489.25;5029154;28;20082;-58
2023/04/21 04:00:48;;;;;;;51.55;27.73;;;;;;;8.25;100.00;101483.16;5028077;28;20036;-57
2023/04/21 04:03:13;;;;;;;41.97;25.63;;;;;;;8.10;100.00;101481.63;5028758;28;20117;-60
2023/04/21 04:05:39;;;;;;;47.20;26.83;;;;;;;8.17;100.00;101482.41;5028553;28;20710;-58
2023/04/21 04:08:05;;;;;;;47.95;27.75;;;;;;;8.18;100.00;101484.13;5025273;28;20018;-57
2023/04/21 04:10:30;;;;;;;46.20;28.45;;;;;;;8.10;100.00;101479.00;5019249;28;20112;-60
2023/04/21 04:12:56;;;;;;;42.67;26.42;;;;;;;8.26;100.00;101484.91;5016410;28;20236;-61
2023/04/21 04:15:21;;;;;;;49.00;27.08;;;;;;;8.13;100.00;101485.97;5026163;28;20070;-56
2023/04/21 04:17:46;;;;;;;50.20;27.13;;;;;;;8.18;100.00;101486.75;5028902;28;20047;-55
2023/04/21 04:20:12;;;;;;;52.67;27.80;;;;;;;8.27;100.00;101497.13;5018080;28;20021;-56
2023/04/21 04:22:37;;;;;;;47.63;25.67;;;;;;;8.32;100.00;101486.56;5026024;28;20014;-60
2023/04/21 04:25:04;;;;;;;44.58;25.52;;;;;;;8.36;100.00;101482.16;5028681;28;20048;-59
2023/04/21 04:27:29;;;;;;;45.13;26.20;;;;;;;8.36;100.00;101487.41;5029613;28;20119;-56
2023/04/21 04:29:55;;;;;;;49.72;27.55;;;;;;;8.35;100.00;101489.16;5017927;28;20210;-59
2023/04/21 04:32:20;;;;;;;46.22;27.02;;;;;;;8.40;100.00;101487.31;5025870;28;20059;-55
2023/04/21 04:34:45;;;;;;;45.25;26.63;;;;;;;8.42;100.00;101489.94;5028765;28;20390;-60
2023/04/21 04:37:12;;;;;;;47.40;26.35;;;;;;;8.39;100.00;101479.47;5027299;28;20029;-58
2023/04/21 04:39:37;;;;;;;46.58;26.80;;;;;;;8.46;100.00;101481.13;5028735;28;20022;-57
2023/04/21 04:42:07;;;;;;;47.40;26.50;;;;;;;8.38;100.00;101478.63;5027963;28;20025;-59
2023/04/21 04:44:32;;;;;;;47.55;26.70;;;;;;;8.45;100.00;101485.50;5027884;28;20025;-57
2023/04/21 04:46:58;;;;;;;46.17;27.42;;;;;;;8.42;100.00;101484.69;5028809;28;20074;-58
2023/04/21 04:49:23;;;;;;;44.65;26.85;;;;;;;8.39;100.00;101484.72;5028135;28;20033;-58
2023/04/21 04:51:48;;;;;;;45.63;26.80;;;;;;;8.44;100.00;101490.78;5014846;28;20044;-57
2023/04/21 04:54:14;;;;;;;47.42;26.85;;;;;;;8.34;100.00;101493.53;5027643;28;20022;-55
2023/04/21 04:56:39;;;;;;;52.30;29.70;;;;;;;8.34;100.00;101492.69;5027915;28;20064;-60
2023/04/21 04:59:05;;;;;;;48.17;27.30;;;;;;;8.34;100.00;101504.03;5028143;28;20805;-57
2023/04/21 05:01:30;;;;;;;50.63;28.65;;;;;;;8.40;100.00;101502.22;5026886;28;20039;-60
2023/04/21 05:03:56;;;;;;;53.53;29.52;;;;;;;8.36;100.00;101503.16;5028252;28;20458;-60
2023/04/21 05:06:22;;;;;;;54.28;29.77;;;;;;;8.34;100.00;101497.94;5022746;28;20045;-56
2023/04/21 05:08:47;;;;;;;51.95;29.33;;;;;;;8.40;100.00;101508.34;5009378;28;20033;-53
2023/04/21 05:11:13;;;;;;;52.53;29.23;;;;;;;8.50;100.00;101501.22;5007931;28;20030;-58
2023/04/21 05:13:38;;;;;;;51.30;30.17;;;;;;;8.63;100.00;101493.16;5025879;28;20265;-56
2023/04/21 05:16:04;;;;;;;51.72;29.85;;;;;;;8.67;100.00;101500.13;5026665;28;20444;-59
2023/04/21 05:18:29;;;;;;;48.47;28.77;;;;;;;8.79;100.00;101494.66;5027076;28;20696;-59
2023/04/21 05:20:55;;;;;;;53.35;29.20;;;;;;;8.82;100.00;101491.97;5010751;28;20030;-56
2023/04/21 05:23:20;;;;;;;51.55;29.33;;;;;;;8.76;100.00;101486.81;5007250;28;20420;-58
2023/04/21 05:25:46;;;;;;;48.80;30.17;;;;;;;8.81;100.00;101482.38;5008133;28;20440;-57
2023/04/21 05:28:11;;;;;;;52.42;29.10;;;;;;;8.86;100.00;101490.19;5007451;28;20026;-57
2023/04/21 05:30:37;;;;;;;50.65;30.35;;;;;;;8.78;100.00;101503.44;5014775;28;20048;-57
2023/04/21 05:33:02;;;;;;;50.03;28.52;;;;;;;8.93;100.00;101496.19;5027078;28;20040;-58
2023/04/21 05:35:30;;;;;;;46.45;27.70;;;;;;;9.05;100.00;101496.00;5025861;28;20048;-60
2023/04/21 05:37:56;;;;;;;38.85;24.85;;;;;;;9.16;100.00;101503.72;5027525;28;20026;-56
2023/04/21 05:40:21;;;;;;;42.53;27.02;;;;;;;9.15;100.00;101511.63;5026703;28;20030;-61
2023/04/21 05:42:46;;;;;;;42.20;26.63;;;;;;;9.22;100.00;101508.00;5026031;28;20025;-59
2023/04/21 05:45:12;;;;;;;46.70;28.20;;;;;;;9.24;100.00;101516.69;5027271;28;20029;-55
2023/04/21 05:47:37;;;;;;;43.30;25.83;;;;;;;9.25;100.00;101514.97;5026893;28;20024;-60
2023/04/21 05:50:04;;;;;;;44.17;26.40;;;;;;;9.32;100.00;101517.44;5026746;28;20052;-60
2023/04/21 05:52:29;;;;;;;37.40;25.60;;;;;;;9.33;100.00;101516.56;5027606;28;20483;-55
2023/04/21 05:54:54;;;;;;;41.63;26.23;;;;;;;9.34;100.00;101514.78;5029077;28;20040;-57
2023/04/21 05:57:20;;;;;;;38.90;24.67;;;;;;;9.33;100.00;101519.19;5025777;28;20481;-57
2023/04/21 05:59:45;;;;;;;41.15;26.40;;;;;;;9.35;100.00;101522.66;5008997;28;20572;-56
2023/04/21 06:02:11;;;;;;;39.03;24.77;;;;;;;9.29;100.00;101528.03;5007730;28;20029;-56
2023/04/21 06:04:36;;;;;;;39.30;24.95;;;;;;;9.40;100.00;101517.31;5007257;28;20084;-58
2023/04/21 06:07:06;;;;;;;41.35;27.02;;;;;;;9.50;100.00;101522.41;5005361;28;20022;-57
2023/04/21 06:09:32;;;;;;;41.28;26.42;;;;;;;9.57;100.00;101527.53;5007040;28;20117;-57
2023/04/21 06:11:57;;;;;;;38.42;25.80;;;;;;;9.71;100.00;101521.13;5007135;28;20532;-57
2023/04/21 06:14:23;;;;;;;39.85;25.58;;;;;;;9.63;100.00;101520.44;5013022;28;20329;-58
2023/04/21 06:16:48;;;;;;;40.25;26.75;;;;;;;9.63;100.00;101526.53;5024634;28;20496;-56
2023/04/21 06:19:13;;;;;;;37.22;25.65;;;;;;;9.76;100.00;101521.94;5026255;28;20025;-55
2023/04/21 06:21:39;;;;;;;40.35;25.40;;;;;;;9.84;100.00;101522.63;5025848;28;20032;-56
2023/04/21 06:24:04;;;;;;;38.47;26.33;;;;;;;9.66;100.00;101528.25;5025138;28;20036;-59
2023/04/21 06:26:30;;;;;;;35.75;24.85;;;;;;;9.79;100.00;101519.22;5025776;28;20626;-56
2023/04/21 06:28:55;;;;;;;38.33;26.67;;;;;;;9.83;100.00;101531.44;5025685;28;20017;-56
2023/04/21 06:31:20;;;;;;;36.63;25.90;;;;;;;9.97;100.00;101532.91;5025598;28;20087;-54
2023/04/21 06:33:45;;;;;;;40.40;25.75;;;;;;;10.01;100.00;101525.81;5022528;28;20061;-59
2023/04/21 06:36:11;;;;;;;39.95;26.00;;;;;;;9.80;100.00;101527.97;5023569;28;20380;-57
2023/04/21 06:38:38;;;;;;;37.80;26.10;;;;;;;10.01;100.00;101524.06;5026906;28;20507;-55
2023/04/21 06:41:05;;;;;;;38.10;25.75;;;;;;;10.16;100.00;101516.72;5028852;28;20472;-55
2023/04/21 06:43:31;;;;;;;39.47;25.92;;;;;;;10.28;100.00;101516.47;5029116;28;20105;-66
2023/04/21 06:45:56;;;;;;;40.15;26.95;;;;;;;10.19;100.00;101525.44;5029439;28;20021;-57
2023/04/21 06:48:23;;;;;;;40.50;26.30;;;;;;;10.24;100.00;101522.72;5028628;28;20483;-58
2023/04/21 06:50:48;;;;;;;37.47;25.65;;;;;;;10.39;100.00;101513.59;5027258;28;20025;-57
2023/04/21 06:53:14;;;;;;;44.20;27.20;;;;;;;10.47;100.00;101513.44;5030167;28;20033;-58
2023/04/21 06:55:39;;;;;;;34.90;25.05;;;;;;;10.68;100.00;101509.47;5029722;28;20036;-58
2023/04/21 06:58:05;;;;;;;33.88;24.60;;;;;;;10.74;100.00;101509.31;5028164;28;20483;-56
2023/04/21 07:00:30;;;;;;;35.60;25.63;;;;;;;10.75;100.00;101515.47;5029175;28;20053;-61
2023/04/21 07:02:55;;;;;;;37.15;25.52;;;;;;;10.69;100.00;101516.44;5027524;28;20063;-54
2023/04/21 07:05:21;;;;;;;37.13;24.92;;;;;;;10.74;100.00;101513.72;5027954;28;20523;-62
2023/04/21 07:07:46;;;;;;;36.58;25.05;;;;;;;10.72;100.00;101515.53;5029386;28;20515;-56
2023/04/21 07:10:11;;;;;;;38.00;27.05;;;;;;;10.86;100.00;101502.00;5026265;28;20464;-57
2023/04/21 07:12:37;;;;;;;39.65;26.67;;;;;;;10.57;100.00;101517.59;5028685;28;20095;-56
2023/04/21 07:15:02;;;;;;;39.85;26.75;;;;;;;10.48;100.00;101505.50;5027055;28;20029;-57
2023/04/21 07:17:28;;;;;;;39.85;26.02;;;;;;;10.55;100.00;101511.53;5028178;28;20021;-60
2023/04/21 07:19:53;;;;;;;38.92;27.38;;;;;;;10.50;100.00;101510.75;5025869;28;20053;-59
2023/04/21 07:22:18;;;;;;;35.90;25.08;;;;;;;10.79;100.00;101505.69;5028292;28;20053;-58
2023/04/21 07:24:44;;;;;;;40.58;28.10;;;;;;;10.83;100.00;101505.59;5026521;28;20044;-57
2023/04/21 07:27:09;;;;;;;41.78;28.20;;;;;;;11.02;100.00;101504.28;5013492;28;20021;-56
2023/04/21 07:29:36;;;;;;;37.90;27.00;;;;;;;11.00;100.00;101504.31;5027780;28;20512;-58
2023/04/21 07:32:01;;;;;;;39.00;27.20;;;;;;;11.00;100.00;101512.22;5028118;28;20017;-59
2023/04/21 07:34:26;;;;;;;37.33;25.77;;;;;;;10.99;100.00;101513.13;5028700;28;20036;-60
2023/04/21 07:36:53;;;;;;;37.28;26.90;;;;;;;10.89;100.00;101512.47;5026964;28;20132;-57
2023/04/21 07:39:19;;;;;;;39.35;28.25;;;;;;;10.94;100.00;101507.09;5025844;28;20029;-60
2023/04/21 07:41:44;;;;;;;38.38;27.15;;;;;;;11.18;100.00;101515.28;5028075;28;20029;-58
2023/04/21 07:44:09;;;;;;;43.50;27.58;;;;;;;11.40;100.00;101507.69;5025739;28;20031;-54
2023/04/21 07:46:35;;;;;;;41.95;28.00;;;;;;;11.24;100.00;101510.75;5028186;28;20047;-56
2023/04/21 07:49:00;;;;;;;40.53;28.02;;;;;;;11.50;100.00;101508.31;5031853;28;20102;-62
2023/04/21 07:51:29;;;;;;;40.67;26.98;;;;;;;11.71;100.00;101506.00;5048052;28;20476;-55
2023/04/21 07:53:54;;;;;;;40.53;28.17;;;;;;;11.77;100.00;101516.34;5035699;28;20029;-56
2023/04/21 07:56:20;;;;;;;39.63;27.77;;;;;;;11.78;100.00;101511.94;5027803;28;20091;-58
2023/04/21 07:58:45;;;;;;;38.92;27.40;;;;;;;11.57;100.00;101517.78;5026862;28;20446;-55
2023/04/21 08:01:11;;;;;;;40.85;27.70;;;;;;;11.92;100.00;101519.50;5026954;28;20442;-54
2023/04/21 08:03:36;;;;;;;39.63;28.23;;;;;;;12.03;100.00;101508.59;5027896;28;20083;-56
2023/04/21 08:06:02;;;;;;;40.00;27.30;;;;;;;12.35;100.00;101507.69;5024295;28;20125;-57
2023/04/21 08:08:27;;;;;;;39.30;28.52;;;;;;;12.11;100.00;101514.56;5027574;28;20108;-60
2023/04/21 08:10:53;;;;;;;40.53;29.40;;;;;;;12.13;100.00;101507.44;5027160;28;20459;-56
2023/04/21 08:13:19;;;;;;;40.33;28.20;;;;;;;12.36;100.00;101504.13;5026677;28;20039;-62
2023/04/21 08:15:45;;;;;;;36.88;27.77;;;;;;;12.11;100.00;101518.09;5023897;28;20323;-54
2023/04/21 08:18:10;;;;;;;39.13;27.83;;;;;;;12.34;100.00;101503.28;5026098;28;20030;-55
2023/04/21 08:20:35;;;;;;;36.58;27.20;;;;;;;12.47;100.00;101513.50;5024412;28;20101;-57
2023/04/21 08:23:01;;;;;;;34.28;25.55;;;;;;;12.60;100.00;101517.50;5026356;28;20044;-57
2023/04/21 08:25:26;;;;;;;35.33;25.67;;;;;;;12.84;100.00;101512.31;5026486;28;20029;-56
2023/04/21 08:27:51;;;;;;;33.60;24.85;;;;;;;13.07;100.00;101513.34;5027052;28;20108;-56
2023/04/21 08:30:17;;;;;;;33.72;23.98;;;;;;;12.67;100.00;101509.38;5038599;28;20045;-55
2023/04/21 08:32:43;;;;;;;31.60;23.95;;;;;;;12.98;100.00;101505.72;5026446;28;20238;-59
2023/04/21 08:35:08;;;;;;;31.88;24.30;;;;;;;12.88;100.00;101515.72;5024564;28;20108;-57
2023/04/21 08:37:37;;;;;;;32.00;24.00;;;;;;;12.96;100.00;101507.53;5027445;28;20033;-56
2023/04/21 08:40:04;;;;;;;30.88;24.42;;;;;;;12.82;100.00;101508.84;5007491;28;20045;-54
2023/04/21 08:42:29;;;;;;;34.72;24.50;;;;;;;13.02;100.00;101512.63;5035825;28;20088;-57
2023/04/21 08:44:55;;;;;;;34.53;23.75;;;;;;;13.10;100.00;101502.63;5024839;28;20021;-59
2023/04/21 08:47:21;;;;;;;32.63;23.67;;;;;;;12.89;100.00;101506.88;5025877;28;20041;-58
2023/04/21 08:49:49;;;;;;;37.50;23.88;;;;;;;13.07;100.00;101500.13;5025289;28;20025;-58
2023/04/21 08:52:14;;;;;;;32.63;23.80;;;;;;;13.18;100.00;101504.19;5023954;28;20033;-57
2023/04/21 08:54:40;;;;;;;29.45;22.13;;;;;;;13.35;100.00;101496.50;5026025;28;20481;-57
2023/04/21 08:57:05;;;;;;;29.67;22.85;;;;;;;13.17;100.00;101498.00;5024964;28;20103;-54
2023/04/21 08:59:31;;;;;;;31.38;23.30;;;;;;;13.27;100.00;101495.91;5022822;28;20017;-59
2023/04/21 09:02:07;;;;;;;28.92;22.42;;;;;;;13.30;100.00;101500.25;5022458;28;20105;-58
2023/04/21 09:04:33;;;;;;;30.92;23.40;;;;;;;13.14;100.00;101496.34;5022936;28;20033;-58
2023/04/21 09:06:58;;;;;;;32.70;24.52;;;;;;;13.31;100.00;101501.97;5023905;28;20028;-55
2023/04/21 09:09:23;;;;;;;34.60;25.77;;;;;;;12.92;100.00;101497.97;5024806;28;20025;-54
2023/04/21 09:11:58;;;;;;;34.17;25.83;;;;;;;12.89;100.00;101491.84;5022238;28;20025;-58
2023/04/21 09:14:33;;;;;;;33.20;25.67;;;;;;;12.82;100.00;101497.44;5024612;28;20120;-57
2023/04/21 09:17:01;;;;;;;32.75;24.45;;;;;;;13.16;100.00;101495.41;5025486;28;20017;-60
2023/04/21 09:19:27;;;;;;;34.90;27.88;;;;;;;13.16;100.00;101487.47;5022466;28;20072;-62
2023/04/21 09:21:53;;;;;;;32.28;25.25;;;;;;;13.04;100.00;101499.34;5024366;28;20018;-57
2023/04/21 09:24:19;;;;;;;33.92;24.80;;;;;;;12.98;100.00;101495.13;5024270;28;20078;-57
2023/04/21 09:26:49;;;;;;;30.92;24.02;;;;;;;13.09;100.00;101498.28;5033877;28;20531;-55
2023/04/21 09:29:15;;;;;;;33.50;25.85;;;;;;;13.39;100.00;101494.59;5028765;28;20109;-55
2023/04/21 09:31:43;;;;;;;30.65;23.65;;;;;;;13.56;100.00;101494.06;5025482;28;20036;-58
2023/04/21 09:34:23;;;;;;;31.65;24.05;;;;;;;13.76;100.00;101481.88;5023011;28;20029;-57
2023/04/21 09:36:58;;;;;;;30.92;23.67;;;;;;;13.75;100.00;101482.78;5014106;28;20055;-54
2023/04/21 09:39:23;;;;;;;33.80;24.40;;;;;;;13.59;100.00;101485.13;5022386;28;20104;-58
2023/04/21 09:41:49;;;;;;;30.10;24.15;;;;;;;13.94;100.00;101480.28;5026246;28;20156;-58
2023/04/21 09:44:16;;;;;;;29.58;24.17;;;;;;;14.03;100.00;101479.09;5025741;28;20550;-57
2023/04/21 09:46:43;;;;;;;30.15;23.05;;;;;;;14.00;100.00;101474.75;5022551;28;20539;-59
2023/04/21 09:49:11;;;;;;;30.73;22.70;;;;;;;14.11;100.00;101484.97;5025050;28;20017;-56
2023/04/21 09:51:37;;;;;;;27.13;22.27;;;;;;;14.23;100.00;101482.75;5023293;28;20026;-56
2023/04/21 09:54:14;;;;;;;26.77;22.42;;;;;;;14.44;100.00;101472.22;5021956;28;20307;-61
2023/04/21 09:56:42;;;;;;;28.00;22.17;;;;;;;14.49;100.00;101470.25;5006432;28;20034;-58
2023/04/21 09:59:13;;;;;;;30.60;22.55;;;;;;;15.00;100.00;101477.94;5005617;28;20038;-58
2023/04/21 10:01:39;;;;;;;23.20;19.17;;;;;;;14.89;100.00;101473.94;5021517;28;20029;-56
2023/04/21 10:04:04;;;;;;;22.25;18.75;;;;;;;15.11;98.81;101477.50;5020965;28;20111;-60
2023/04/21 10:06:30;;;;;;;23.58;18.50;;;;;;;14.98;98.00;101471.81;5006539;28;20053;-55
2023/04/21 10:08:56;;;;;;;25.08;19.77;;;;;;;14.77;100.00;101474.41;5006479;28;20032;-61
2023/04/21 10:11:22;;;;;;;24.85;18.85;;;;;;;15.10;100.00;101473.97;5016173;28;20025;-57
2023/04/21 10:13:48;;;;;;;24.02;19.73;;;;;;;15.33;99.96;101471.22;5025800;28;20564;-57
2023/04/21 10:16:16;;;;;;;21.95;18.77;;;;;;;15.40;100.00;101473.56;5021099;28;20112;-56
2023/04/21 10:18:43;;;;;;;18.67;16.52;;;;;;;15.87;96.71;101470.59;5017107;28;20037;-59
2023/04/21 10:21:18;;;;;;;21.45;16.52;;;;;;;15.49;95.83;101461.66;5023614;28;20476;-53
2023/04/21 10:23:45;;;;;;;20.15;16.80;;;;;;;15.65;96.79;101456.50;5025152;28;20025;-58
2023/04/21 10:26:16;;;;;;;18.38;15.55;;;;;;;15.66;95.29;101452.91;5025801;28;20021;-55
2023/04/21 10:28:44;;;;;;;20.58;15.75;;;;;;;15.97;95.72;101449.78;5026370;28;20404;-56
2023/04/21 10:31:19;;;;;;;;;;;;;;;16.16;94.06;101452.44;5025644;28;20448;-59
2023/04/21 10:34:12;;;;;;;19.17;15.55;;;;;;;15.75;94.53;101451.63;5025956;28;20015;-60
2023/04/21 10:36:55;;;;;;;22.85;17.83;;;;;;;15.33;95.58;101450.00;5025891;28;20033;-53
2023/04/21 10:39:28;;;;;;;24.42;17.63;;;;;;;15.49;96.52;101439.53;5025668;28;20096;-56
2023/04/21 10:41:57;;;;;;;21.50;18.17;;;;;;;15.71;97.29;101436.75;5024948;28;20021;-57
2023/04/21 10:44:23;;;;;;;21.95;17.85;;;;;;;15.91;95.84;101430.53;5024044;28;20340;-56
2023/04/21 10:46:52;;;;;;;21.15;17.67;;;;;;;16.49;96.44;101426.94;5016098;28;20033;-55
2023/04/21 10:49:17;;;;;;;24.90;19.25;;;;;;;15.95;96.66;101427.72;5021799;28;20597;-57
2023/04/21 10:51:58;;;;;;;25.58;19.88;;;;;;;16.09;96.92;101422.66;5025475;28;20034;-62
2023/04/21 10:54:28;;;;;;;25.20;19.75;;;;;;;15.93;96.97;101419.84;5025480;28;20157;-56
2023/04/21 10:56:55;;;;;;;22.00;18.90;;;;;;;15.94;97.02;101418.88;5025355;28;20025;-58
2023/04/21 10:59:21;;;;;;;22.60;18.33;;;;;;;16.24;95.73;101417.50;5024340;28;20121;-62
2023/04/21 11:01:46;;;;;;;22.88;18.10;;;;;;;16.54;95.17;101415.16;5024991;28;20092;-55
2023/04/21 11:04:13;;;;;;;20.80;17.80;;;;;;;16.48;94.18;101414.56;5025387;28;20034;-63